sensor_id;sensor_type;location;lat;lon;timestamp;pressure;altitude;pressure_sealevel;temperature;humidity
74218;BME280;62579;47.288;18.646;2022-12-18T00:01:32;101350.59;;;-1.93;87.96
74218;BME280;62579;47.288;18.646;2022-12-18T00:04:04;101357.88;;;-1.87;87.56
74218;BME280;62579;47.288;18.646;2022-12-18T00:06:30;101367.00;;;-1.95;87.87
74218;BME280;62579;47.288;18.646;2022-12-18T00:08:57;101364.28;;;-2.02;87.96
74218;BME280;62579;47.288;18.646;2022-12-18T00:11:25;101370.81;;;-1.92;87.67
74218;BME280;62579;47.288;18.646;2022-12-18T00:13:52;101365.47;;;-1.92;87.68
74218;BME280;62579;47.288;18.646;2022-12-18T00:16:20;101372.34;;;-1.91;87.68
74218;BME280;62579;47.288;18.646;2022-12-18T00:18:47;101369.59;;;-2.05;88.33
74218;BME280;62579;47.288;18.646;2022-12-18T00:21:13;101370.78;;;-1.99;88.08
74218;BME280;62579;47.288;18.646;2022-12-18T00:23:41;101376.06;;;-2.10;88.45
74218;BME280;62579;47.288;18.646;2022-12-18T00:26:11;101374.59;;;-2.00;88.06
74218;BME280;62579;47.288;18.646;2022-12-18T00:28:37;101389.78;;;-2.04;87.90
74218;BME280;62579;47.288;18.646;2022-12-18T00:31:03;101395.47;;;-2.09;88.19
74218;BME280;62579;47.288;18.646;2022-12-18T00:33:28;101406.97;;;-1.98;87.79
74218;BME280;62579;47.288;18.646;2022-12-18T00:35:54;101410.34;;;-2.08;88.00
74218;BME280;62579;47.288;18.646;2022-12-18T00:38:19;101418.03;;;-2.00;87.44
74218;BME280;62579;47.288;18.646;2022-12-18T00:40:45;101419.16;;;-2.01;87.47
74218;BME280;62579;47.288;18.646;2022-12-18T00:43:10;101422.66;;;-1.90;86.86
74218;BME280;62579;47.288;18.646;2022-12-18T00:45:35;101421.88;;;-1.94;86.85
74218;BME280;62579;47.288;18.646;2022-12-18T00:48:00;101424.19;;;-1.89;86.66
74218;BME280;62579;47.288;18.646;2022-12-18T00:50:26;101426.09;;;-1.89;86.50
74218;BME280;62579;47.288;18.646;2022-12-18T00:52:51;101439.47;;;-1.82;85.95
74218;BME280;62579;47.288;18.646;2022-12-18T00:55:17;101443.22;;;-1.90;86.79
74218;BME280;62579;47.288;18.646;2022-12-18T00:57:43;101457.34;;;-1.90;86.62
74218;BME280;62579;47.288;18.646;2022-12-18T01:00:11;101456.25;;;-1.82;86.33
74218;BME280;62579;47.288;18.646;2022-12-18T01:02:37;101451.28;;;-1.83;86.03
74218;BME280;62579;47.288;18.646;2022-12-18T01:05:02;101461.22;;;-1.76;85.64
74218;BME280;62579;47.288;18.646;2022-12-18T01:07:28;101453.59;;;-1.78;85.49
74218;BME280;62579;47.288;18.646;2022-12-18T01:09:53;101459.72;;;-1.74;84.90
74218;BME280;62579;47.288;18.646;2022-12-18T01:12:18;101457.78;;;-1.77;85.03
74218;BME280;62579;47.288;18.646;2022-12-18T01:14:43;101454.69;;;-1.83;85.08
74218;BME280;62579;47.288;18.646;2022-12-18T01:17:09;101448.91;;;-1.95;85.83
74218;BME280;62579;47.288;18.646;2022-12-18T01:19:34;101448.16;;;-1.96;85.66
74218;BME280;62579;47.288;18.646;2022-12-18T01:22:00;101449.59;;;-2.09;86.36
74218;BME280;62579;47.288;18.646;2022-12-18T01:24:25;101441.56;;;-2.16;86.82
74218;BME280;62579;47.288;18.646;2022-12-18T01:26:50;101444.25;;;-2.09;86.50
74218;BME280;62579;47.288;18.646;2022-12-18T01:29:16;101451.06;;;-2.18;87.19
74218;BME280;62579;47.288;18.646;2022-12-18T01:31:41;101449.91;;;-2.17;86.85
74218;BME280;62579;47.288;18.646;2022-12-18T01:34:06;101449.91;;;-2.17;86.76
74218;BME280;62579;47.288;18.646;2022-12-18T01:36:34;101462.06;;;-2.23;86.80
74218;BME280;62579;47.288;18.646;2022-12-18T01:39:04;101458.97;;;-2.25;86.87
74218;BME280;62579;47.288;18.646;2022-12-18T01:41:31;101465.56;;;-2.12;86.43
74218;BME280;62579;47.288;18.646;2022-12-18T01:49:53;101476.94;;;-2.19;86.57
74218;BME280;62579;47.288;18.646;2022-12-18T01:52:20;101475.38;;;-2.27;86.96
74218;BME280;62579;47.288;18.646;2022-12-18T01:54:46;101474.63;;;-2.24;86.87
74218;BME280;62579;47.288;18.646;2022-12-18T01:57:12;101481.72;;;-2.38;87.28
74218;BME280;62579;47.288;18.646;2022-12-18T01:59:38;101481.81;;;-2.31;87.07
74218;BME280;62579;47.288;18.646;2022-12-18T02:02:05;101477.47;;;-2.50;88.00
74218;BME280;62579;47.288;18.646;2022-12-18T02:04:31;101495.16;;;-2.31;87.23
74218;BME280;62579;47.288;18.646;2022-12-18T02:09:38;101513.44;;;-2.30;87.05
74218;BME280;62579;47.288;18.646;2022-12-18T02:12:19;101517.56;;;-2.36;87.13
74218;BME280;62579;47.288;18.646;2022-12-18T02:17:31;101523.66;;;-2.35;87.45
74218;BME280;62579;47.288;18.646;2022-12-18T02:22:48;101519.88;;;-2.31;86.95
74218;BME280;62579;47.288;18.646;2022-12-18T02:27:41;101531.44;;;-2.16;86.00
74218;BME280;62579;47.288;18.646;2022-12-18T02:30:09;101532.19;;;-2.19;85.88
74218;BME280;62579;47.288;18.646;2022-12-18T02:32:38;101533.66;;;-2.25;86.25
74218;BME280;62579;47.288;18.646;2022-12-18T02:35:06;101539.34;;;-2.27;86.25
74218;BME280;62579;47.288;18.646;2022-12-18T02:37:34;101546.59;;;-2.27;86.37
74218;BME280;62579;47.288;18.646;2022-12-18T02:40:02;101551.56;;;-2.26;86.37
74218;BME280;62579;47.288;18.646;2022-12-18T02:42:28;101542.16;;;-2.13;85.12
74218;BME280;62579;47.288;18.646;2022-12-18T02:44:54;101542.94;;;-2.09;84.49
74218;BME280;62579;47.288;18.646;2022-12-18T02:47:22;101550.47;;;-2.21;84.75
74218;BME280;62579;47.288;18.646;2022-12-18T02:52:31;101556.38;;;-2.38;85.71
74218;BME280;62579;47.288;18.646;2022-12-18T02:57:36;101554.00;;;-2.47;85.73
74218;BME280;62579;47.288;18.646;2022-12-18T03:00:12;101556.22;;;-2.56;86.08
74218;BME280;62579;47.288;18.646;2022-12-18T03:02:57;101572.09;;;-2.67;86.76
74218;BME280;62579;47.288;18.646;2022-12-18T03:05:38;101577.13;;;-2.58;86.31
74218;BME280;62579;47.288;18.646;2022-12-18T03:08:12;101572.47;;;-2.65;86.67
74218;BME280;62579;47.288;18.646;2022-12-18T03:10:44;101572.75;;;-2.73;86.87
74218;BME280;62579;47.288;18.646;2022-12-18T03:13:20;101574.06;;;-2.60;86.50
74218;BME280;62579;47.288;18.646;2022-12-18T03:15:49;101579.84;;;-2.88;87.82
74218;BME280;62579;47.288;18.646;2022-12-18T03:18:19;101582.94;;;-2.82;87.77
74218;BME280;62579;47.288;18.646;2022-12-18T03:20:47;101584.53;;;-2.78;87.32
74218;BME280;62579;47.288;18.646;2022-12-18T03:23:21;101574.72;;;-3.00;88.28
74218;BME280;62579;47.288;18.646;2022-12-18T03:25:51;101574.47;;;-2.91;88.23
74218;BME280;62579;47.288;18.646;2022-12-18T03:28:20;101589.59;;;-2.99;88.59
74218;BME280;62579;47.288;18.646;2022-12-18T03:30:48;101588.41;;;-3.01;88.76
74218;BME280;62579;47.288;18.646;2022-12-18T03:33:21;101587.44;;;-2.86;88.20
74218;BME280;62579;47.288;18.646;2022-12-18T03:35:49;101584.12;;;-2.80;87.75
74218;BME280;62579;47.288;18.646;2022-12-18T03:38:15;101586.50;;;-3.01;88.50
74218;BME280;62579;47.288;18.646;2022-12-18T03:46:17;101601.94;;;-3.14;89.11
74218;BME280;62579;47.288;18.646;2022-12-18T03:48:53;101608.09;;;-3.10;88.84
74218;BME280;62579;47.288;18.646;2022-12-18T03:51:27;101612.97;;;-3.15;89.19
74218;BME280;62579;47.288;18.646;2022-12-18T03:53:58;101608.91;;;-3.06;88.77
74218;BME280;62579;47.288;18.646;2022-12-18T03:56:27;101613.44;;;-3.06;88.60
74218;BME280;62579;47.288;18.646;2022-12-18T03:58:55;101618.78;;;-3.06;88.36
74218;BME280;62579;47.288;18.646;2022-12-18T04:01:28;101620.56;;;-3.14;88.80
74218;BME280;62579;47.288;18.646;2022-12-18T04:03:58;101624.81;;;-3.09;88.69
74218;BME280;62579;47.288;18.646;2022-12-18T04:06:25;101630.56;;;-3.07;88.67
74218;BME280;62579;47.288;18.646;2022-12-18T04:08:52;101633.94;;;-3.10;89.10
74218;BME280;62579;47.288;18.646;2022-12-18T04:11:17;101637.94;;;-2.97;88.43
74218;BME280;62579;47.288;18.646;2022-12-18T04:13:43;101631.56;;;-2.89;87.84
74218;BME280;62579;47.288;18.646;2022-12-18T04:16:09;101633.50;;;-2.86;87.85
74218;BME280;62579;47.288;18.646;2022-12-18T04:18:35;101631.25;;;-2.84;87.28
74218;BME280;62579;47.288;18.646;2022-12-18T04:21:01;101631.66;;;-2.82;87.38
74218;BME280;62579;47.288;18.646;2022-12-18T04:23:26;101632.06;;;-2.80;87.09
74218;BME280;62579;47.288;18.646;2022-12-18T04:25:53;101640.41;;;-2.81;86.89
74218;BME280;62579;47.288;18.646;2022-12-18T04:28:18;101639.63;;;-2.85;87.03
74218;BME280;62579;47.288;18.646;2022-12-18T04:30:44;101646.00;;;-2.90;87.04
74218;BME280;62579;47.288;18.646;2022-12-18T04:33:11;101638.69;;;-2.96;87.05
74218;BME280;62579;47.288;18.646;2022-12-18T04:35:37;101634.41;;;-3.05;87.22
74218;BME280;62579;47.288;18.646;2022-12-18T04:38:02;101635.47;;;-3.09;87.20
74218;BME280;62579;47.288;18.646;2022-12-18T04:40:27;101647.72;;;-3.05;86.92
74218;BME280;62579;47.288;18.646;2022-12-18T04:42:53;101643.91;;;-3.04;87.04
74218;BME280;62579;47.288;18.646;2022-12-18T04:45:18;101651.50;;;-3.06;87.13
74218;BME280;62579;47.288;18.646;2022-12-18T04:47:43;101662.22;;;-3.02;87.17
74218;BME280;62579;47.288;18.646;2022-12-18T04:50:09;101662.28;;;-2.98;87.18
74218;BME280;62579;47.288;18.646;2022-12-18T04:52:35;101669.12;;;-2.97;87.08
74218;BME280;62579;47.288;18.646;2022-12-18T04:55:01;101676.78;;;-2.92;87.10
74218;BME280;62579;47.288;18.646;2022-12-18T04:57:26;101676.41;;;-2.94;86.88
74218;BME280;62579;47.288;18.646;2022-12-18T04:59:51;101680.63;;;-2.90;86.94
74218;BME280;62579;47.288;18.646;2022-12-18T05:02:17;101682.59;;;-2.87;86.79
74218;BME280;62579;47.288;18.646;2022-12-18T05:04:42;101684.78;;;-2.92;86.47
74218;BME280;62579;47.288;18.646;2022-12-18T05:07:07;101687.81;;;-2.94;86.56
74218;BME280;62579;47.288;18.646;2022-12-18T05:09:32;101691.56;;;-2.98;86.49
74218;BME280;62579;47.288;18.646;2022-12-18T05:11:58;101693.09;;;-2.97;86.40
74218;BME280;62579;47.288;18.646;2022-12-18T05:14:23;101691.19;;;-2.97;86.46
74218;BME280;62579;47.288;18.646;2022-12-18T05:16:48;101696.62;;;-2.90;86.16
74218;BME280;62579;47.288;18.646;2022-12-18T05:19:14;101697.66;;;-2.72;84.87
74218;BME280;62579;47.288;18.646;2022-12-18T05:21:39;101696.47;;;-2.74;84.82
74218;BME280;62579;47.288;18.646;2022-12-18T05:24:04;101699.16;;;-2.71;84.45
74218;BME280;62579;47.288;18.646;2022-12-18T05:26:30;101700.72;;;-2.96;85.30
74218;BME280;62579;47.288;18.646;2022-12-18T05:28:56;101705.63;;;-2.98;85.43
74218;BME280;62579;47.288;18.646;2022-12-18T05:31:21;101712.41;;;-3.04;85.54
74218;BME280;62579;47.288;18.646;2022-12-18T05:33:48;101718.78;;;-3.09;85.83
74218;BME280;62579;47.288;18.646;2022-12-18T05:36:13;101716.75;;;-3.19;86.71
74218;BME280;62579;47.288;18.646;2022-12-18T05:38:39;101726.31;;;-3.14;86.66
74218;BME280;62579;47.288;18.646;2022-12-18T05:41:05;101714.94;;;-3.11;86.39
74218;BME280;62579;47.288;18.646;2022-12-18T05:43:31;101721.50;;;-3.31;87.23
74218;BME280;62579;47.288;18.646;2022-12-18T05:45:56;101732.25;;;-3.47;87.71
74218;BME280;62579;47.288;18.646;2022-12-18T05:48:23;101738.63;;;-3.51;87.41
74218;BME280;62579;47.288;18.646;2022-12-18T05:50:49;101730.88;;;-3.60;87.97
74218;BME280;62579;47.288;18.646;2022-12-18T05:53:17;101733.59;;;-3.56;87.87
74218;BME280;62579;47.288;18.646;2022-12-18T05:55:43;101734.78;;;-3.54;87.71
74218;BME280;62579;47.288;18.646;2022-12-18T05:58:09;101735.56;;;-3.53;87.51
74218;BME280;62579;47.288;18.646;2022-12-18T06:00:37;101737.84;;;-3.52;87.62
74218;BME280;62579;47.288;18.646;2022-12-18T06:03:07;101741.19;;;-3.58;87.55
74218;BME280;62579;47.288;18.646;2022-12-18T06:05:37;101731.66;;;-3.59;87.45
74218;BME280;62579;47.288;18.646;2022-12-18T06:08:03;101734.03;;;-3.74;87.81
74218;BME280;62579;47.288;18.646;2022-12-18T06:10:29;101748.81;;;-3.76;87.93
74218;BME280;62579;47.288;18.646;2022-12-18T06:12:54;101745.75;;;-3.78;87.85
74218;BME280;62579;47.288;18.646;2022-12-18T06:15:20;101748.63;;;-3.87;88.19
74218;BME280;62579;47.288;18.646;2022-12-18T06:17:45;101753.03;;;-3.94;88.36
74218;BME280;62579;47.288;18.646;2022-12-18T06:20:10;101758.53;;;-4.06;88.75
74218;BME280;62579;47.288;18.646;2022-12-18T06:22:36;101756.69;;;-4.02;88.79
74218;BME280;62579;47.288;18.646;2022-12-18T06:25:01;101767.41;;;-3.99;88.84
74218;BME280;62579;47.288;18.646;2022-12-18T06:27:26;101764.75;;;-3.99;88.89
74218;BME280;62579;47.288;18.646;2022-12-18T06:29:52;101769.84;;;-3.90;88.75
74218;BME280;62579;47.288;18.646;2022-12-18T06:32:17;101778.25;;;-3.88;88.58
74218;BME280;62579;47.288;18.646;2022-12-18T06:34:43;101780.22;;;-3.85;88.48
74218;BME280;62579;47.288;18.646;2022-12-18T06:37:08;101782.22;;;-3.79;88.52
74218;BME280;62579;47.288;18.646;2022-12-18T06:39:33;101784.25;;;-3.72;87.75
74218;BME280;62579;47.288;18.646;2022-12-18T06:41:59;101778.31;;;-3.85;88.11
74218;BME280;62579;47.288;18.646;2022-12-18T06:44:24;101782.47;;;-3.87;88.04
74218;BME280;62579;47.288;18.646;2022-12-18T06:46:49;101782.87;;;-3.85;88.06
74218;BME280;62579;47.288;18.646;2022-12-18T06:49:15;101793.09;;;-3.87;88.19
74218;BME280;62579;47.288;18.646;2022-12-18T06:51:41;101798.94;;;-3.78;87.92
74218;BME280;62579;47.288;18.646;2022-12-18T06:54:07;101798.66;;;-3.73;87.75
74218;BME280;62579;47.288;18.646;2022-12-18T06:56:33;101799.03;;;-3.75;87.54
74218;BME280;62579;47.288;18.646;2022-12-18T06:58:58;101802.09;;;-3.73;88.13
74218;BME280;62579;47.288;18.646;2022-12-18T07:01:24;101810.44;;;-3.74;88.02
74218;BME280;62579;47.288;18.646;2022-12-18T07:03:53;101820.16;;;-3.62;87.38
74218;BME280;62579;47.288;18.646;2022-12-18T07:06:21;101816.00;;;-3.60;87.08
74218;BME280;62579;47.288;18.646;2022-12-18T07:08:48;101816.66;;;-3.67;87.35
74218;BME280;62579;47.288;18.646;2022-12-18T07:11:14;101810.66;;;-3.63;87.23
74218;BME280;62579;47.288;18.646;2022-12-18T07:13:40;101819.13;;;-3.58;87.26
74218;BME280;62579;47.288;18.646;2022-12-18T07:16:07;101826.03;;;-3.53;87.83
74218;BME280;62579;47.288;18.646;2022-12-18T07:18:33;101834.13;;;-3.46;87.94
74218;BME280;62579;47.288;18.646;2022-12-18T07:21:02;101838.22;;;-3.52;88.16
74218;BME280;62579;47.288;18.646;2022-12-18T07:23:28;101839.12;;;-3.45;88.27
74218;BME280;62579;47.288;18.646;2022-12-18T07:25:53;101846.75;;;-3.43;88.33
74218;BME280;62579;47.288;18.646;2022-12-18T07:28:18;101851.84;;;-3.35;88.31
74218;BME280;62579;47.288;18.646;2022-12-18T07:30:44;101858.78;;;-3.30;88.26
74218;BME280;62579;47.288;18.646;2022-12-18T07:33:09;101858.84;;;-3.27;88.68
74218;BME280;62579;47.288;18.646;2022-12-18T07:35:35;101868.50;;;-3.19;88.15
74218;BME280;62579;47.288;18.646;2022-12-18T07:38:01;101868.91;;;-3.17;87.99
74218;BME280;62579;47.288;18.646;2022-12-18T07:40:27;101873.72;;;-3.03;87.66
74218;BME280;62579;47.288;18.646;2022-12-18T07:42:52;101878.56;;;-3.09;88.02
74218;BME280;62579;47.288;18.646;2022-12-18T07:45:17;101880.47;;;-3.09;88.52
74218;BME280;62579;47.288;18.646;2022-12-18T07:47:43;101880.94;;;-3.04;88.62
74218;BME280;62579;47.288;18.646;2022-12-18T07:50:08;101879.66;;;-2.90;88.17
74218;BME280;62579;47.288;18.646;2022-12-18T07:52:34;101896.00;;;-2.92;88.41
74218;BME280;62579;47.288;18.646;2022-12-18T07:54:59;101910.28;;;-2.81;88.77
74218;BME280;62579;47.288;18.646;2022-12-18T07:57:25;101900.09;;;-2.75;88.10
74218;BME280;62579;47.288;18.646;2022-12-18T07:59:50;101908.66;;;-2.63;87.87
74218;BME280;62579;47.288;18.646;2022-12-18T08:02:16;101910.63;;;-2.60;87.89
74218;BME280;62579;47.288;18.646;2022-12-18T08:04:41;101906.16;;;-2.52;87.78
74218;BME280;62579;47.288;18.646;2022-12-18T08:07:06;101913.66;;;-2.61;88.13
74218;BME280;62579;47.288;18.646;2022-12-18T08:09:32;101930.59;;;-2.50;87.87
74218;BME280;62579;47.288;18.646;2022-12-18T08:11:57;101925.06;;;-2.38;87.41
74218;BME280;62579;47.288;18.646;2022-12-18T08:14:22;101932.75;;;-2.33;87.03
74218;BME280;62579;47.288;18.646;2022-12-18T08:16:48;101925.53;;;-2.32;86.83
74218;BME280;62579;47.288;18.646;2022-12-18T08:19:13;101925.63;;;-2.25;86.44
74218;BME280;62579;47.288;18.646;2022-12-18T08:21:38;101924.81;;;-2.29;86.42
74218;BME280;62579;47.288;18.646;2022-12-18T08:24:04;101932.53;;;-2.24;86.96
74218;BME280;62579;47.288;18.646;2022-12-18T08:26:30;101927.72;;;-2.15;86.59
74218;BME280;62579;47.288;18.646;2022-12-18T08:28:57;101935.81;;;-2.08;85.66
74218;BME280;62579;47.288;18.646;2022-12-18T08:31:23;101939.19;;;-2.11;86.61
74218;BME280;62579;47.288;18.646;2022-12-18T08:33:50;101948.13;;;-2.00;85.79
74218;BME280;62579;47.288;18.646;2022-12-18T08:36:16;101937.09;;;-1.99;85.97
74218;BME280;62579;47.288;18.646;2022-12-18T08:38:42;101944.75;;;-1.97;86.13
74218;BME280;62579;47.288;18.646;2022-12-18T08:41:13;101942.06;;;-1.97;85.27
74218;BME280;62579;47.288;18.646;2022-12-18T08:43:39;101942.37;;;-2.02;85.81
74218;BME280;62579;47.288;18.646;2022-12-18T08:46:25;101935.41;;;-1.84;85.57
74218;BME280;62579;47.288;18.646;2022-12-18T08:48:51;101943.62;;;-1.37;95.48
74218;BME280;62579;47.288;18.646;2022-12-18T08:51:17;101951.34;;;-1.61;86.73
74218;BME280;62579;47.288;18.646;2022-12-18T08:53:43;101946.13;;;-1.51;84.83
74218;BME280;62579;47.288;18.646;2022-12-18T08:56:09;101952.91;;;-1.57;84.73
74218;BME280;62579;47.288;18.646;2022-12-18T08:58:35;101956.06;;;-1.48;84.54
74218;BME280;62579;47.288;18.646;2022-12-18T09:01:01;101955.28;;;-1.52;83.44
74218;BME280;62579;47.288;18.646;2022-12-18T09:03:27;101957.62;;;-1.47;84.50
74218;BME280;62579;47.288;18.646;2022-12-18T09:05:52;101959.97;;;-1.42;84.52
74218;BME280;62579;47.288;18.646;2022-12-18T09:08:17;101961.78;;;-1.49;84.57
74218;BME280;62579;47.288;18.646;2022-12-18T09:10:44;101957.34;;;-1.38;83.68
74218;BME280;62579;47.288;18.646;2022-12-18T09:13:11;101946.47;;;-1.23;82.38
74218;BME280;62579;47.288;18.646;2022-12-18T09:15:44;101955.47;;;-1.34;83.25
74218;BME280;62579;47.288;18.646;2022-12-18T09:18:11;101955.53;;;-1.31;82.70
74218;BME280;62579;47.288;18.646;2022-12-18T09:20:37;101956.31;;;-1.30;82.28
74218;BME280;62579;47.288;18.646;2022-12-18T09:23:04;101947.12;;;-1.33;82.89
74218;BME280;62579;47.288;18.646;2022-12-18T09:25:30;101956.38;;;-1.23;82.80
74218;BME280;62579;47.288;18.646;2022-12-18T09:28:11;101947.59;;;-1.24;83.72
74218;BME280;62579;47.288;18.646;2022-12-18T09:30:38;101948.69;;;-1.28;81.91
74218;BME280;62579;47.288;18.646;2022-12-18T09:33:04;101957.09;;;-1.30;81.67
74218;BME280;62579;47.288;18.646;2022-12-18T09:35:29;101956.69;;;-1.28;81.81
74218;BME280;62579;47.288;18.646;2022-12-18T09:37:54;101953.50;;;-1.07;82.14
74218;BME280;62579;47.288;18.646;2022-12-18T09:40:23;101952.13;;;-0.94;80.16
74218;BME280;62579;47.288;18.646;2022-12-18T09:42:55;101959.25;;;-1.05;81.24
74218;BME280;62579;47.288;18.646;2022-12-18T09:45:23;101967.00;;;-0.97;81.31
74218;BME280;62579;47.288;18.646;2022-12-18T09:47:50;101959.37;;;-0.95;79.63
74218;BME280;62579;47.288;18.646;2022-12-18T09:50:28;101970.03;;;-0.98;79.31
74218;BME280;62579;47.288;18.646;2022-12-18T09:52:58;101957.06;;;-0.96;79.76
74218;BME280;62579;47.288;18.646;2022-12-18T09:55:33;101953.84;;;-0.76;78.81
74218;BME280;62579;47.288;18.646;2022-12-18T10:00:34;101951.56;;;-0.74;80.12
74218;BME280;62579;47.288;18.646;2022-12-18T10:03:03;101956.19;;;-0.71;80.32
74218;BME280;62579;47.288;18.646;2022-12-18T10:05:50;101952.09;;;-0.57;79.69
74218;BME280;62579;47.288;18.646;2022-12-18T10:11:41;101943.41;;;-0.47;79.67
74218;BME280;62579;47.288;18.646;2022-12-18T10:14:18;101933.44;;;-0.50;79.65
74218;BME280;62579;47.288;18.646;2022-12-18T10:19:51;101940.78;;;-0.40;80.21
74218;BME280;62579;47.288;18.646;2022-12-18T10:27:26;101934.47;;;-0.15;78.42
74218;BME280;62579;47.288;18.646;2022-12-18T10:29:52;101944.47;;;-0.08;78.72
74218;BME280;62579;47.288;18.646;2022-12-18T10:32:23;101945.31;;;0.07;78.78
74218;BME280;62579;47.288;18.646;2022-12-18T10:34:51;101948.31;;;-0.02;78.71
74218;BME280;62579;47.288;18.646;2022-12-18T10:37:20;101950.28;;;0.05;78.20
74218;BME280;62579;47.288;18.646;2022-12-18T10:40:06;101956.06;;;0.14;77.47
74218;BME280;62579;47.288;18.646;2022-12-18T10:42:32;101958.38;;;0.15;77.39
74218;BME280;62579;47.288;18.646;2022-12-18T10:45:05;101952.50;;;-0.05;76.85
74218;BME280;62579;47.288;18.646;2022-12-18T10:47:33;101947.22;;;0.06;77.20
74218;BME280;62579;47.288;18.646;2022-12-18T10:49:59;101947.72;;;0.19;77.15
74218;BME280;62579;47.288;18.646;2022-12-18T10:52:25;101951.53;;;0.21;76.33
74218;BME280;62579;47.288;18.646;2022-12-18T10:54:59;101949.28;;;0.27;76.56
74218;BME280;62579;47.288;18.646;2022-12-18T10:57:39;101955.81;;;0.33;75.56
74218;BME280;62579;47.288;18.646;2022-12-18T11:02:50;101938.25;;;0.42;74.76
74218;BME280;62579;47.288;18.646;2022-12-18T11:05:25;101945.56;;;0.52;74.87
74218;BME280;62579;47.288;18.646;2022-12-18T11:07:51;101937.56;;;0.56;74.91
74218;BME280;62579;47.288;18.646;2022-12-18T11:10:20;101930.28;;;0.60;75.12
74218;BME280;62579;47.288;18.646;2022-12-18T11:12:47;101936.84;;;0.70;74.56
74218;BME280;62579;47.288;18.646;2022-12-18T11:15:39;101928.06;;;0.73;74.36
74218;BME280;62579;47.288;18.646;2022-12-18T11:18:19;101932.28;;;0.81;74.01
74218;BME280;62579;47.288;18.646;2022-12-18T11:20:54;101931.50;;;0.84;73.66
74218;BME280;62579;47.288;18.646;2022-12-18T11:23:21;101923.09;;;0.82;74.55
74218;BME280;62579;47.288;18.646;2022-12-18T11:25:54;101922.75;;;0.94;73.80
74218;BME280;62579;47.288;18.646;2022-12-18T11:28:37;101917.41;;;0.94;74.38
74218;BME280;62579;47.288;18.646;2022-12-18T11:31:17;101911.66;;;1.02;74.13
74218;BME280;62579;47.288;18.646;2022-12-18T11:33:47;101914.31;;;0.85;74.14
74218;BME280;62579;47.288;18.646;2022-12-18T11:36:16;101912.03;;;0.90;74.93
74218;BME280;62579;47.288;18.646;2022-12-18T11:38:43;101913.56;;;0.95;75.20
74218;BME280;62579;47.288;18.646;2022-12-18T11:41:15;101915.50;;;1.08;74.38
74218;BME280;62579;47.288;18.646;2022-12-18T11:43:50;101914.72;;;1.11;74.46
74218;BME280;62579;47.288;18.646;2022-12-18T11:46:24;101917.41;;;1.08;74.38
74218;BME280;62579;47.288;18.646;2022-12-18T11:49:12;101925.88;;;1.38;78.05
74218;BME280;62579;47.288;18.646;2022-12-18T11:51:53;101916.69;;;1.29;74.31
74218;BME280;62579;47.288;18.646;2022-12-18T11:54:20;101907.09;;;1.35;74.52
74218;BME280;62579;47.288;18.646;2022-12-18T11:57:00;101890.63;;;1.43;73.66
74218;BME280;62579;47.288;18.646;2022-12-18T12:16:17;101894.44;;;1.74;72.53
74218;BME280;62579;47.288;18.646;2022-12-18T12:21:37;101905.19;;;1.74;72.00
74218;BME280;62579;47.288;18.646;2022-12-18T12:30:08;101902.09;;;1.79;70.39
74218;BME280;62579;47.288;18.646;2022-12-18T12:33:05;101895.59;;;1.80;70.42
74218;BME280;62579;47.288;18.646;2022-12-18T12:35:57;101897.47;;;1.87;70.22
74218;BME280;62579;47.288;18.646;2022-12-18T12:38:35;101894.41;;;1.81;70.76
74218;BME280;62579;47.288;18.646;2022-12-18T12:41:07;101904.37;;;1.91;70.41
74218;BME280;62579;47.288;18.646;2022-12-18T12:43:56;101906.69;;;1.93;70.59
74218;BME280;62579;47.288;18.646;2022-12-18T12:46:23;101900.87;;;2.05;70.00
74218;BME280;62579;47.288;18.646;2022-12-18T12:48:52;101901.31;;;1.96;70.43
74218;BME280;62579;47.288;18.646;2022-12-18T12:53:49;101921.25;;;1.99;69.25
74218;BME280;62579;47.288;18.646;2022-12-18T12:56:18;101927.72;;;2.15;69.09
74218;BME280;62579;47.288;18.646;2022-12-18T13:01:28;101938.13;;;1.89;70.58
74218;BME280;62579;47.288;18.646;2022-12-18T13:09:12;101941.19;;;1.98;70.44
74218;BME280;62579;47.288;18.646;2022-12-18T13:11:38;101942.34;;;1.90;70.88
74218;BME280;62579;47.288;18.646;2022-12-18T13:14:35;101943.91;;;1.76;70.39
74218;BME280;62579;47.288;18.646;2022-12-18T13:17:25;101947.31;;;1.95;70.34
74218;BME280;62579;47.288;18.646;2022-12-18T13:20:04;101943.50;;;1.92;70.47
74218;BME280;62579;47.288;18.646;2022-12-18T13:22:46;101949.63;;;2.00;69.78
74218;BME280;62579;47.288;18.646;2022-12-18T13:25:35;101947.31;;;1.91;70.31
74218;BME280;62579;47.288;18.646;2022-12-18T13:28:12;101945.41;;;1.81;69.85
74218;BME280;62579;47.288;18.646;2022-12-18T13:30:53;101943.50;;;1.85;70.21
74218;BME280;62579;47.288;18.646;2022-12-18T13:43:27;101946.19;;;1.85;70.97
74218;BME280;62579;47.288;18.646;2022-12-18T13:46:23;101941.22;;;1.87;70.73
74218;BME280;62579;47.288;18.646;2022-12-18T13:51:21;101950.00;;;1.95;70.62
74218;BME280;62579;47.288;18.646;2022-12-18T13:53:58;101960.00;;;1.91;70.99
74218;BME280;62579;47.288;18.646;2022-12-18T13:56:32;101955.37;;;1.91;71.49
74218;BME280;62579;47.288;18.646;2022-12-18T13:59:14;101958.06;;;1.91;71.83
74218;BME280;62579;47.288;18.646;2022-12-18T14:01:46;101954.22;;;1.89;72.38
74218;BME280;62579;47.288;18.646;2022-12-18T14:04:19;101956.16;;;1.88;72.72
74218;BME280;62579;47.288;18.646;2022-12-18T14:06:46;101961.91;;;1.83;73.18
74218;BME280;62579;47.288;18.646;2022-12-18T14:09:17;101962.28;;;1.81;73.42
74218;BME280;62579;47.288;18.646;2022-12-18T14:11:49;101964.22;;;1.81;73.54
74218;BME280;62579;47.288;18.646;2022-12-18T14:14:17;101971.12;;;1.78;73.63
74218;BME280;62579;47.288;18.646;2022-12-18T14:16:42;101968.81;;;1.73;74.08
74218;BME280;62579;47.288;18.646;2022-12-18T14:19:14;101971.50;;;1.73;74.17
74218;BME280;62579;47.288;18.646;2022-12-18T14:21:45;101969.97;;;1.72;74.15
74218;BME280;62579;47.288;18.646;2022-12-18T14:24:19;101963.44;;;1.73;74.17